Air Navigation Services of Czech Republic
Airport: LKKB Updated:  21.01.2019 05:01:06  UTC
 METAR LKKB 21.01. 05:00 ...
METAR LKKB 210500Z 00000KT 7000 NSC M08/M10 Q1021 NOSIG RMK WHT WHT=
 TAF LKKB 20.01. 23:00 ...
TAF LKKB 202300Z 2100/2200 03004KT CAVOK      BECMG 2102/2104 4000 BR      PROB30 TEMPO 2105/2108 1500 BR      BECMG 2110/2112 8000      BECMG 2112/2114 CAVOK=